sensor_id;sensor_type;location;lat;lon;timestamp;P1;durP1;ratioP1;P2;durP2;ratioP2
6223;SDS011;3145;42.726;23.342;2023-01-16T00:00:56;127.47;;;62.80;;
6223;SDS011;3145;42.726;23.342;2023-01-16T00:03:23;122.77;;;66.77;;
6223;SDS011;3145;42.726;23.342;2023-01-16T00:05:49;113.10;;;63.83;;
6223;SDS011;3145;42.726;23.342;2023-01-16T00:08:16;126.83;;;66.10;;
6223;SDS011;3145;42.726;23.342;2023-01-16T00:10:43;133.20;;;68.37;;
6223;SDS011;3145;42.726;23.342;2023-01-16T00:13:12;135.10;;;68.10;;
6223;SDS011;3145;42.726;23.342;2023-01-16T00:15:43;127.73;;;69.23;;
6223;SDS011;3145;42.726;23.342;2023-01-16T00:18:11;125.77;;;67.47;;
6223;SDS011;3145;42.726;23.342;2023-01-16T00:20:37;127.43;;;69.57;;
6223;SDS011;3145;42.726;23.342;2023-01-16T00:23:04;132.33;;;70.10;;
6223;SDS011;3145;42.726;23.342;2023-01-16T00:25:31;133.03;;;70.00;;
6223;SDS011;3145;42.726;23.342;2023-01-16T00:27:58;122.43;;;66.63;;
6223;SDS011;3145;42.726;23.342;2023-01-16T00:30:26;126.47;;;66.60;;
6223;SDS011;3145;42.726;23.342;2023-01-16T00:32:53;109.47;;;58.27;;
6223;SDS011;3145;42.726;23.342;2023-01-16T00:35:19;119.27;;;60.77;;
6223;SDS011;3145;42.726;23.342;2023-01-16T00:37:46;123.60;;;65.73;;
6223;SDS011;3145;42.726;23.342;2023-01-16T00:40:13;106.17;;;61.23;;
6223;SDS011;3145;42.726;23.342;2023-01-16T00:42:39;106.63;;;58.27;;
6223;SDS011;3145;42.726;23.342;2023-01-16T00:45:07;104.10;;;57.00;;
6223;SDS011;3145;42.726;23.342;2023-01-16T00:47:36;95.50;;;53.30;;
6223;SDS011;3145;42.726;23.342;2023-01-16T00:50:03;95.10;;;54.03;;
6223;SDS011;3145;42.726;23.342;2023-01-16T00:52:31;98.60;;;54.50;;
6223;SDS011;3145;42.726;23.342;2023-01-16T00:54:57;93.70;;;54.23;;
6223;SDS011;3145;42.726;23.342;2023-01-16T00:57:24;106.33;;;56.50;;
6223;SDS011;3145;42.726;23.342;2023-01-16T00:59:51;104.43;;;55.97;;
6223;SDS011;3145;42.726;23.342;2023-01-16T01:02:18;98.60;;;55.23;;
6223;SDS011;3145;42.726;23.342;2023-01-16T01:04:46;108.00;;;56.90;;
6223;SDS011;3145;42.726;23.342;2023-01-16T01:07:12;107.57;;;54.37;;
6223;SDS011;3145;42.726;23.342;2023-01-16T01:09:39;96.67;;;52.30;;
6223;SDS011;3145;42.726;23.342;2023-01-16T01:12:06;95.70;;;52.40;;
6223;SDS011;3145;42.726;23.342;2023-01-16T01:14:33;94.23;;;52.07;;
6223;SDS011;3145;42.726;23.342;2023-01-16T01:16:59;84.33;;;49.90;;
6223;SDS011;3145;42.726;23.342;2023-01-16T01:19:26;88.67;;;49.57;;
6223;SDS011;3145;42.726;23.342;2023-01-16T01:21:54;89.07;;;49.70;;
6223;SDS011;3145;42.726;23.342;2023-01-16T01:24:21;86.90;;;48.27;;
6223;SDS011;3145;42.726;23.342;2023-01-16T01:26:47;84.60;;;46.17;;
6223;SDS011;3145;42.726;23.342;2023-01-16T01:29:14;81.57;;;44.67;;
6223;SDS011;3145;42.726;23.342;2023-01-16T01:31:41;87.93;;;47.03;;
6223;SDS011;3145;42.726;23.342;2023-01-16T01:34:07;81.33;;;46.37;;
6223;SDS011;3145;42.726;23.342;2023-01-16T01:36:34;92.00;;;50.20;;
6223;SDS011;3145;42.726;23.342;2023-01-16T01:39:02;82.20;;;46.03;;
6223;SDS011;3145;42.726;23.342;2023-01-16T01:41:29;82.80;;;47.63;;
6223;SDS011;3145;42.726;23.342;2023-01-16T01:43:56;80.30;;;48.43;;
6223;SDS011;3145;42.726;23.342;2023-01-16T01:46:24;76.57;;;45.97;;
6223;SDS011;3145;42.726;23.342;2023-01-16T01:48:53;72.83;;;42.60;;
6223;SDS011;3145;42.726;23.342;2023-01-16T01:51:23;81.07;;;46.37;;
6223;SDS011;3145;42.726;23.342;2023-01-16T01:53:55;72.73;;;42.60;;
6223;SDS011;3145;42.726;23.342;2023-01-16T01:56:28;72.10;;;39.50;;
6223;SDS011;3145;42.726;23.342;2023-01-16T01:58:59;75.20;;;42.53;;
6223;SDS011;3145;42.726;23.342;2023-01-16T02:01:28;69.00;;;40.90;;
6223;SDS011;3145;42.726;23.342;2023-01-16T02:03:57;85.20;;;46.10;;
6223;SDS011;3145;42.726;23.342;2023-01-16T02:06:28;116.73;;;61.63;;
6223;SDS011;3145;42.726;23.342;2023-01-16T02:09:01;116.20;;;60.30;;
6223;SDS011;3145;42.726;23.342;2023-01-16T02:11:31;117.97;;;56.73;;
6223;SDS011;3145;42.726;23.342;2023-01-16T02:14:03;99.83;;;52.03;;
6223;SDS011;3145;42.726;23.342;2023-01-16T02:16:32;96.13;;;48.60;;
6223;SDS011;3145;42.726;23.342;2023-01-16T02:19:17;98.90;;;50.43;;
6223;SDS011;3145;42.726;23.342;2023-01-16T02:22:11;82.40;;;46.93;;
6223;SDS011;3145;42.726;23.342;2023-01-16T02:28:08;96.90;;;46.10;;
6223;SDS011;3145;42.726;23.342;2023-01-16T02:30:58;90.60;;;47.70;;
6223;SDS011;3145;42.726;23.342;2023-01-16T02:33:34;78.70;;;48.13;;
6223;SDS011;3145;42.726;23.342;2023-01-16T02:36:14;74.10;;;43.77;;
6223;SDS011;3145;42.726;23.342;2023-01-16T02:38:49;87.10;;;47.50;;
6223;SDS011;3145;42.726;23.342;2023-01-16T02:41:23;85.33;;;47.40;;
6223;SDS011;3145;42.726;23.342;2023-01-16T02:44:08;99.97;;;50.57;;
6223;SDS011;3145;42.726;23.342;2023-01-16T02:46:43;96.00;;;51.17;;
6223;SDS011;3145;42.726;23.342;2023-01-16T02:49:16;97.93;;;49.27;;
6223;SDS011;3145;42.726;23.342;2023-01-16T02:51:49;97.23;;;50.30;;
6223;SDS011;3145;42.726;23.342;2023-01-16T02:54:23;87.50;;;48.83;;
6223;SDS011;3145;42.726;23.342;2023-01-16T02:56:59;91.40;;;48.70;;
6223;SDS011;3145;42.726;23.342;2023-01-16T02:59:30;98.97;;;52.17;;
6223;SDS011;3145;42.726;23.342;2023-01-16T03:02:00;82.10;;;48.40;;
6223;SDS011;3145;42.726;23.342;2023-01-16T03:04:38;99.73;;;52.70;;
6223;SDS011;3145;42.726;23.342;2023-01-16T03:07:16;101.30;;;53.07;;
6223;SDS011;3145;42.726;23.342;2023-01-16T03:09:56;87.87;;;49.93;;
6223;SDS011;3145;42.726;23.342;2023-01-16T03:12:38;89.60;;;48.13;;
6223;SDS011;3145;42.726;23.342;2023-01-16T03:15:11;100.37;;;53.63;;
6223;SDS011;3145;42.726;23.342;2023-01-16T03:17:48;107.23;;;57.17;;
6223;SDS011;3145;42.726;23.342;2023-01-16T03:20:30;99.83;;;55.33;;
6223;SDS011;3145;42.726;23.342;2023-01-16T03:23:07;91.87;;;52.07;;
6223;SDS011;3145;42.726;23.342;2023-01-16T03:25:40;87.60;;;49.70;;
6223;SDS011;3145;42.726;23.342;2023-01-16T03:28:16;87.67;;;47.87;;
6223;SDS011;3145;42.726;23.342;2023-01-16T03:30:52;88.73;;;49.47;;
6223;SDS011;3145;42.726;23.342;2023-01-16T03:33:33;95.80;;;48.43;;
6223;SDS011;3145;42.726;23.342;2023-01-16T03:36:08;86.57;;;48.83;;
6223;SDS011;3145;42.726;23.342;2023-01-16T03:38:40;88.53;;;50.07;;
6223;SDS011;3145;42.726;23.342;2023-01-16T03:41:10;96.17;;;53.93;;
6223;SDS011;3145;42.726;23.342;2023-01-16T03:43:39;94.77;;;54.90;;
6223;SDS011;3145;42.726;23.342;2023-01-16T03:46:06;118.13;;;67.30;;
6223;SDS011;3145;42.726;23.342;2023-01-16T03:48:40;138.47;;;70.00;;
6223;SDS011;3145;42.726;23.342;2023-01-16T03:51:12;117.70;;;62.67;;
6223;SDS011;3145;42.726;23.342;2023-01-16T03:53:46;122.90;;;65.77;;
6223;SDS011;3145;42.726;23.342;2023-01-16T03:56:23;146.23;;;72.93;;
6223;SDS011;3145;42.726;23.342;2023-01-16T03:58:56;154.93;;;77.87;;
6223;SDS011;3145;42.726;23.342;2023-01-16T04:01:25;150.43;;;76.17;;
6223;SDS011;3145;42.726;23.342;2023-01-16T04:03:59;149.03;;;71.53;;
6223;SDS011;3145;42.726;23.342;2023-01-16T04:06:31;147.60;;;76.40;;
6223;SDS011;3145;42.726;23.342;2023-01-16T04:09:01;123.03;;;67.33;;
6223;SDS011;3145;42.726;23.342;2023-01-16T04:11:34;118.60;;;63.50;;
6223;SDS011;3145;42.726;23.342;2023-01-16T04:14:03;120.70;;;64.53;;
6223;SDS011;3145;42.726;23.342;2023-01-16T04:16:33;116.93;;;64.13;;
6223;SDS011;3145;42.726;23.342;2023-01-16T04:19:03;111.23;;;58.70;;
6223;SDS011;3145;42.726;23.342;2023-01-16T04:21:31;106.50;;;59.57;;
6223;SDS011;3145;42.726;23.342;2023-01-16T04:23:58;111.60;;;62.83;;
6223;SDS011;3145;42.726;23.342;2023-01-16T04:26:26;108.80;;;59.07;;
6223;SDS011;3145;42.726;23.342;2023-01-16T04:28:53;125.60;;;71.53;;
6223;SDS011;3145;42.726;23.342;2023-01-16T04:31:21;119.73;;;64.50;;
6223;SDS011;3145;42.726;23.342;2023-01-16T04:33:49;106.47;;;61.57;;
6223;SDS011;3145;42.726;23.342;2023-01-16T04:36:17;112.00;;;62.20;;
6223;SDS011;3145;42.726;23.342;2023-01-16T04:38:44;107.83;;;59.50;;
6223;SDS011;3145;42.726;23.342;2023-01-16T04:41:11;96.33;;;54.37;;
6223;SDS011;3145;42.726;23.342;2023-01-16T04:43:37;102.40;;;57.83;;
6223;SDS011;3145;42.726;23.342;2023-01-16T04:46:04;105.60;;;55.13;;
6223;SDS011;3145;42.726;23.342;2023-01-16T04:48:31;90.27;;;50.87;;
6223;SDS011;3145;42.726;23.342;2023-01-16T04:50:58;94.50;;;53.60;;
6223;SDS011;3145;42.726;23.342;2023-01-16T04:53:26;102.33;;;55.23;;
6223;SDS011;3145;42.726;23.342;2023-01-16T04:55:53;89.43;;;54.17;;
6223;SDS011;3145;42.726;23.342;2023-01-16T04:58:19;88.10;;;50.33;;
6223;SDS011;3145;42.726;23.342;2023-01-16T05:00:46;81.60;;;48.37;;
6223;SDS011;3145;42.726;23.342;2023-01-16T05:03:13;84.73;;;48.17;;
6223;SDS011;3145;42.726;23.342;2023-01-16T05:05:40;87.63;;;49.93;;
6223;SDS011;3145;42.726;23.342;2023-01-16T05:08:08;101.63;;;61.33;;
6223;SDS011;3145;42.726;23.342;2023-01-16T05:10:46;118.73;;;68.53;;
6223;SDS011;3145;42.726;23.342;2023-01-16T05:13:12;105.37;;;57.43;;
6223;SDS011;3145;42.726;23.342;2023-01-16T05:15:39;141.40;;;71.50;;
6223;SDS011;3145;42.726;23.342;2023-01-16T05:18:09;119.37;;;63.67;;
6223;SDS011;3145;42.726;23.342;2023-01-16T05:20:36;122.87;;;69.90;;
6223;SDS011;3145;42.726;23.342;2023-01-16T05:23:03;103.60;;;58.53;;
6223;SDS011;3145;42.726;23.342;2023-01-16T05:25:31;110.57;;;61.13;;
6223;SDS011;3145;42.726;23.342;2023-01-16T05:27:59;113.17;;;60.80;;
6223;SDS011;3145;42.726;23.342;2023-01-16T05:30:25;111.07;;;62.53;;
6223;SDS011;3145;42.726;23.342;2023-01-16T05:32:52;127.83;;;62.83;;
6223;SDS011;3145;42.726;23.342;2023-01-16T05:35:19;127.47;;;66.97;;
6223;SDS011;3145;42.726;23.342;2023-01-16T05:37:46;127.73;;;67.87;;
6223;SDS011;3145;42.726;23.342;2023-01-16T05:40:13;108.37;;;62.07;;
6223;SDS011;3145;42.726;23.342;2023-01-16T05:42:41;120.10;;;62.53;;
6223;SDS011;3145;42.726;23.342;2023-01-16T05:45:10;123.70;;;61.97;;
6223;SDS011;3145;42.726;23.342;2023-01-16T05:47:37;110.93;;;61.23;;
6223;SDS011;3145;42.726;23.342;2023-01-16T05:50:04;103.00;;;57.03;;
6223;SDS011;3145;42.726;23.342;2023-01-16T05:52:31;116.73;;;59.13;;
6223;SDS011;3145;42.726;23.342;2023-01-16T05:54:58;110.17;;;53.93;;
6223;SDS011;3145;42.726;23.342;2023-01-16T05:57:24;96.37;;;49.43;;
6223;SDS011;3145;42.726;23.342;2023-01-16T05:59:51;92.13;;;45.43;;
6223;SDS011;3145;42.726;23.342;2023-01-16T06:02:20;99.00;;;46.70;;
6223;SDS011;3145;42.726;23.342;2023-01-16T06:04:48;94.10;;;45.70;;
6223;SDS011;3145;42.726;23.342;2023-01-16T06:07:14;91.83;;;43.47;;
6223;SDS011;3145;42.726;23.342;2023-01-16T06:09:41;92.37;;;45.57;;
6223;SDS011;3145;42.726;23.342;2023-01-16T06:12:10;113.57;;;47.33;;
6223;SDS011;3145;42.726;23.342;2023-01-16T06:14:40;105.20;;;50.13;;
6223;SDS011;3145;42.726;23.342;2023-01-16T06:17:06;137.80;;;49.23;;
6223;SDS011;3145;42.726;23.342;2023-01-16T06:19:35;149.23;;;52.00;;
6223;SDS011;3145;42.726;23.342;2023-01-16T06:22:01;175.27;;;56.23;;
6223;SDS011;3145;42.726;23.342;2023-01-16T06:24:28;147.77;;;54.23;;
6223;SDS011;3145;42.726;23.342;2023-01-16T06:26:55;178.50;;;56.60;;
6223;SDS011;3145;42.726;23.342;2023-01-16T06:29:22;154.97;;;55.93;;
6223;SDS011;3145;42.726;23.342;2023-01-16T06:31:48;161.83;;;57.27;;
6223;SDS011;3145;42.726;23.342;2023-01-16T06:34:15;160.93;;;57.60;;
6223;SDS011;3145;42.726;23.342;2023-01-16T06:36:43;209.50;;;58.07;;
6223;SDS011;3145;42.726;23.342;2023-01-16T06:39:12;157.40;;;57.80;;
6223;SDS011;3145;42.726;23.342;2023-01-16T06:41:39;180.70;;;54.80;;
6223;SDS011;3145;42.726;23.342;2023-01-16T06:44:06;212.60;;;59.10;;
6223;SDS011;3145;42.726;23.342;2023-01-16T06:46:33;195.87;;;58.20;;
6223;SDS011;3145;42.726;23.342;2023-01-16T06:49:00;161.37;;;64.43;;
6223;SDS011;3145;42.726;23.342;2023-01-16T06:51:27;174.83;;;67.93;;
6223;SDS011;3145;42.726;23.342;2023-01-16T06:53:55;184.43;;;75.23;;
6223;SDS011;3145;42.726;23.342;2023-01-16T06:56:22;188.30;;;85.77;;
6223;SDS011;3145;42.726;23.342;2023-01-16T06:58:49;225.63;;;98.10;;
6223;SDS011;3145;42.726;23.342;2023-01-16T07:01:16;307.43;;;135.83;;
6223;SDS011;3145;42.726;23.342;2023-01-16T07:03:42;259.90;;;122.83;;
6223;SDS011;3145;42.726;23.342;2023-01-16T07:06:09;200.07;;;95.77;;
6223;SDS011;3145;42.726;23.342;2023-01-16T07:08:37;271.20;;;97.13;;
6223;SDS011;3145;42.726;23.342;2023-01-16T07:11:05;231.20;;;87.57;;
6223;SDS011;3145;42.726;23.342;2023-01-16T07:13:32;202.33;;;88.07;;
6223;SDS011;3145;42.726;23.342;2023-01-16T07:15:59;231.70;;;95.13;;
6223;SDS011;3145;42.726;23.342;2023-01-16T07:18:43;275.53;;;94.63;;
6223;SDS011;3145;42.726;23.342;2023-01-16T07:21:30;267.07;;;95.23;;
6223;SDS011;3145;42.726;23.342;2023-01-16T07:24:16;334.30;;;108.07;;
6223;SDS011;3145;42.726;23.342;2023-01-16T07:26:47;392.13;;;110.53;;
6223;SDS011;3145;42.726;23.342;2023-01-16T07:29:19;329.73;;;119.40;;
6223;SDS011;3145;42.726;23.342;2023-01-16T07:31:46;392.10;;;109.10;;
6223;SDS011;3145;42.726;23.342;2023-01-16T07:34:13;318.30;;;109.00;;
6223;SDS011;3145;42.726;23.342;2023-01-16T07:36:40;273.23;;;87.27;;
6223;SDS011;3145;42.726;23.342;2023-01-16T07:39:06;241.77;;;76.30;;
6223;SDS011;3145;42.726;23.342;2023-01-16T07:41:33;210.40;;;71.77;;
6223;SDS011;3145;42.726;23.342;2023-01-16T07:44:01;222.10;;;75.93;;
6223;SDS011;3145;42.726;23.342;2023-01-16T07:46:28;249.77;;;79.67;;
6223;SDS011;3145;42.726;23.342;2023-01-16T07:48:55;333.37;;;99.13;;
6223;SDS011;3145;42.726;23.342;2023-01-16T07:51:21;374.10;;;121.60;;
6223;SDS011;3145;42.726;23.342;2023-01-16T07:53:48;265.53;;;98.27;;
6223;SDS011;3145;42.726;23.342;2023-01-16T07:56:15;244.33;;;97.03;;
6223;SDS011;3145;42.726;23.342;2023-01-16T07:58:42;218.93;;;89.17;;
6223;SDS011;3145;42.726;23.342;2023-01-16T08:01:10;252.33;;;97.40;;
6223;SDS011;3145;42.726;23.342;2023-01-16T08:03:37;232.50;;;82.70;;
6223;SDS011;3145;42.726;23.342;2023-01-16T08:06:04;284.33;;;92.90;;
6223;SDS011;3145;42.726;23.342;2023-01-16T08:08:32;238.60;;;88.13;;
6223;SDS011;3145;42.726;23.342;2023-01-16T08:11:00;264.17;;;75.50;;
6223;SDS011;3145;42.726;23.342;2023-01-16T08:13:50;208.40;;;73.97;;
6223;SDS011;3145;42.726;23.342;2023-01-16T08:16:18;186.03;;;68.83;;
6223;SDS011;3145;42.726;23.342;2023-01-16T08:18:45;138.27;;;62.97;;
6223;SDS011;3145;42.726;23.342;2023-01-16T08:21:13;172.33;;;65.90;;
6223;SDS011;3145;42.726;23.342;2023-01-16T08:23:41;120.87;;;56.67;;
6223;SDS011;3145;42.726;23.342;2023-01-16T08:26:08;134.90;;;58.17;;
6223;SDS011;3145;42.726;23.342;2023-01-16T08:28:35;117.63;;;54.40;;
6223;SDS011;3145;42.726;23.342;2023-01-16T08:31:05;122.13;;;55.33;;
6223;SDS011;3145;42.726;23.342;2023-01-16T08:33:35;121.20;;;56.17;;
6223;SDS011;3145;42.726;23.342;2023-01-16T08:36:02;130.47;;;59.27;;
6223;SDS011;3145;42.726;23.342;2023-01-16T08:38:29;103.93;;;47.93;;
6223;SDS011;3145;42.726;23.342;2023-01-16T08:40:56;72.10;;;36.93;;
6223;SDS011;3145;42.726;23.342;2023-01-16T08:43:23;81.47;;;40.37;;
6223;SDS011;3145;42.726;23.342;2023-01-16T08:46:10;73.37;;;37.70;;
6223;SDS011;3145;42.726;23.342;2023-01-16T08:49:01;109.13;;;50.03;;
6223;SDS011;3145;42.726;23.342;2023-01-16T08:51:46;129.43;;;59.20;;
6223;SDS011;3145;42.726;23.342;2023-01-16T08:54:12;167.73;;;77.63;;
6223;SDS011;3145;42.726;23.342;2023-01-16T08:56:39;163.83;;;75.17;;
6223;SDS011;3145;42.726;23.342;2023-01-16T08:59:07;136.87;;;61.27;;
6223;SDS011;3145;42.726;23.342;2023-01-16T09:01:34;116.77;;;58.57;;
6223;SDS011;3145;42.726;23.342;2023-01-16T09:04:03;114.63;;;55.80;;
6223;SDS011;3145;42.726;23.342;2023-01-16T09:06:30;123.33;;;56.67;;
6223;SDS011;3145;42.726;23.342;2023-01-16T09:08:56;107.37;;;52.10;;
6223;SDS011;3145;42.726;23.342;2023-01-16T09:11:23;90.30;;;44.80;;
6223;SDS011;3145;42.726;23.342;2023-01-16T09:14:07;81.03;;;43.53;;
6223;SDS011;3145;42.726;23.342;2023-01-16T09:16:34;85.90;;;47.93;;
6223;SDS011;3145;42.726;23.342;2023-01-16T09:19:00;97.73;;;49.07;;
6223;SDS011;3145;42.726;23.342;2023-01-16T09:21:29;99.73;;;54.30;;
6223;SDS011;3145;42.726;23.342;2023-01-16T09:23:56;105.63;;;54.30;;
6223;SDS011;3145;42.726;23.342;2023-01-16T09:26:22;96.33;;;52.17;;
6223;SDS011;3145;42.726;23.342;2023-01-16T09:28:49;94.43;;;49.67;;
6223;SDS011;3145;42.726;23.342;2023-01-16T09:31:16;99.97;;;50.17;;
6223;SDS011;3145;42.726;23.342;2023-01-16T09:33:44;83.87;;;45.67;;
6223;SDS011;3145;42.726;23.342;2023-01-16T09:36:13;78.30;;;43.23;;
6223;SDS011;3145;42.726;23.342;2023-01-16T09:38:40;68.93;;;38.60;;
6223;SDS011;3145;42.726;23.342;2023-01-16T09:41:08;67.00;;;37.23;;
6223;SDS011;3145;42.726;23.342;2023-01-16T09:44:02;68.17;;;38.37;;
6223;SDS011;3145;42.726;23.342;2023-01-16T09:46:32;75.77;;;38.90;;
6223;SDS011;3145;42.726;23.342;2023-01-16T09:49:05;78.23;;;42.03;;
6223;SDS011;3145;42.726;23.342;2023-01-16T09:51:42;79.50;;;44.70;;
6223;SDS011;3145;42.726;23.342;2023-01-16T09:54:34;55.07;;;32.57;;
6223;SDS011;3145;42.726;23.342;2023-01-16T09:57:23;71.27;;;37.57;;
6223;SDS011;3145;42.726;23.342;2023-01-16T10:00:11;75.93;;;40.57;;
6223;SDS011;3145;42.726;23.342;2023-01-16T10:02:42;63.87;;;33.93;;
6223;SDS011;3145;42.726;23.342;2023-01-16T10:05:09;63.13;;;32.07;;
6223;SDS011;3145;42.726;23.342;2023-01-16T10:07:45;51.87;;;31.53;;
6223;SDS011;3145;42.726;23.342;2023-01-16T10:10:26;59.10;;;33.10;;
6223;SDS011;3145;42.726;23.342;2023-01-16T10:13:03;74.13;;;35.67;;
6223;SDS011;3145;42.726;23.342;2023-01-16T10:15:42;53.60;;;31.83;;
6223;SDS011;3145;42.726;23.342;2023-01-16T10:18:22;59.20;;;32.17;;
6223;SDS011;3145;42.726;23.342;2023-01-16T10:21:10;54.63;;;32.60;;
6223;SDS011;3145;42.726;23.342;2023-01-16T10:23:52;58.17;;;32.80;;
6223;SDS011;3145;42.726;23.342;2023-01-16T10:26:23;57.60;;;31.57;;
6223;SDS011;3145;42.726;23.342;2023-01-16T10:28:55;106.87;;;44.73;;
6223;SDS011;3145;42.726;23.342;2023-01-16T10:31:28;52.20;;;28.60;;
6223;SDS011;3145;42.726;23.342;2023-01-16T10:34:00;45.70;;;26.70;;
6223;SDS011;3145;42.726;23.342;2023-01-16T10:36:33;56.73;;;33.17;;
6223;SDS011;3145;42.726;23.342;2023-01-16T10:39:05;45.00;;;26.27;;
6223;SDS011;3145;42.726;23.342;2023-01-16T10:41:33;44.30;;;25.17;;
6223;SDS011;3145;42.726;23.342;2023-01-16T10:44:21;70.20;;;35.70;;
6223;SDS011;3145;42.726;23.342;2023-01-16T10:47:11;61.93;;;31.70;;
6223;SDS011;3145;42.726;23.342;2023-01-16T10:49:57;55.50;;;33.63;;
6223;SDS011;3145;42.726;23.342;2023-01-16T10:52:24;55.10;;;30.77;;
6223;SDS011;3145;42.726;23.342;2023-01-16T10:54:53;60.63;;;32.30;;
6223;SDS011;3145;42.726;23.342;2023-01-16T10:57:21;62.50;;;32.33;;
6223;SDS011;3145;42.726;23.342;2023-01-16T10:59:49;44.63;;;28.03;;
6223;SDS011;3145;42.726;23.342;2023-01-16T11:02:18;55.07;;;30.50;;
6223;SDS011;3145;42.726;23.342;2023-01-16T11:04:48;51.33;;;31.07;;
6223;SDS011;3145;42.726;23.342;2023-01-16T11:07:16;53.13;;;30.07;;
6223;SDS011;3145;42.726;23.342;2023-01-16T11:09:45;49.17;;;28.93;;
6223;SDS011;3145;42.726;23.342;2023-01-16T11:12:15;60.40;;;36.57;;
6223;SDS011;3145;42.726;23.342;2023-01-16T11:15:08;63.53;;;35.90;;
6223;SDS011;3145;42.726;23.342;2023-01-16T11:17:58;59.23;;;33.97;;
6223;SDS011;3145;42.726;23.342;2023-01-16T11:21:15;53.93;;;32.43;;
6223;SDS011;3145;42.726;23.342;2023-01-16T11:23:44;54.70;;;31.27;;
6223;SDS011;3145;42.726;23.342;2023-01-16T11:26:14;52.23;;;30.50;;
6223;SDS011;3145;42.726;23.342;2023-01-16T11:28:42;57.67;;;31.20;;
6223;SDS011;3145;42.726;23.342;2023-01-16T11:31:13;46.47;;;28.83;;
6223;SDS011;3145;42.726;23.342;2023-01-16T11:33:44;47.40;;;27.30;;
6223;SDS011;3145;42.726;23.342;2023-01-16T11:36:20;36.43;;;22.13;;
6223;SDS011;3145;42.726;23.342;2023-01-16T11:38:49;40.23;;;22.47;;
6223;SDS011;3145;42.726;23.342;2023-01-16T11:41:18;42.03;;;24.07;;
6223;SDS011;3145;42.726;23.342;2023-01-16T11:43:47;35.43;;;20.80;;
6223;SDS011;3145;42.726;23.342;2023-01-16T11:46:47;34.70;;;18.57;;
6223;SDS011;3145;42.726;23.342;2023-01-16T11:49:16;31.33;;;21.50;;
6223;SDS011;3145;42.726;23.342;2023-01-16T11:51:45;30.07;;;18.90;;
6223;SDS011;3145;42.726;23.342;2023-01-16T11:54:17;31.97;;;19.80;;
6223;SDS011;3145;42.726;23.342;2023-01-16T11:57:00;40.27;;;22.67;;
6223;SDS011;3145;42.726;23.342;2023-01-16T12:02:47;26.23;;;16.90;;
6223;SDS011;3145;42.726;23.342;2023-01-16T12:05:29;39.77;;;19.13;;
6223;SDS011;3145;42.726;23.342;2023-01-16T12:08:25;42.67;;;22.97;;
6223;SDS011;3145;42.726;23.342;2023-01-16T12:11:05;25.13;;;16.77;;
6223;SDS011;3145;42.726;23.342;2023-01-16T12:13:35;41.10;;;22.70;;
6223;SDS011;3145;42.726;23.342;2023-01-16T12:16:29;29.13;;;17.70;;
6223;SDS011;3145;42.726;23.342;2023-01-16T12:19:13;34.43;;;20.03;;
6223;SDS011;3145;42.726;23.342;2023-01-16T12:21:56;24.40;;;15.30;;
6223;SDS011;3145;42.726;23.342;2023-01-16T12:24:33;36.30;;;21.37;;
6223;SDS011;3145;42.726;23.342;2023-01-16T12:27:10;30.77;;;19.77;;
6223;SDS011;3145;42.726;23.342;2023-01-16T12:29:51;16.33;;;11.17;;
6223;SDS011;3145;42.726;23.342;2023-01-16T12:32:35;26.00;;;16.03;;
6223;SDS011;3145;42.726;23.342;2023-01-16T12:35:15;20.50;;;12.50;;
6223;SDS011;3145;42.726;23.342;2023-01-16T12:38:06;13.37;;;10.67;;
6223;SDS011;3145;42.726;23.342;2023-01-16T12:40:44;21.27;;;15.90;;
6223;SDS011;3145;42.726;23.342;2023-01-16T12:43:59;23.97;;;15.33;;
6223;SDS011;3145;42.726;23.342;2023-01-16T12:46:44;35.80;;;16.00;;
6223;SDS011;3145;42.726;23.342;2023-01-16T12:49:34;20.40;;;12.80;;
6223;SDS011;3145;42.726;23.342;2023-01-16T12:52:15;24.90;;;15.73;;
6223;SDS011;3145;42.726;23.342;2023-01-16T12:54:57;31.73;;;19.70;;
6223;SDS011;3145;42.726;23.342;2023-01-16T12:57:52;31.47;;;19.67;;
6223;SDS011;3145;42.726;23.342;2023-01-16T13:00:27;31.90;;;17.33;;
6223;SDS011;3145;42.726;23.342;2023-01-16T13:03:00;26.53;;;16.37;;
6223;SDS011;3145;42.726;23.342;2023-01-16T13:05:33;35.33;;;20.33;;
6223;SDS011;3145;42.726;23.342;2023-01-16T13:08:04;35.03;;;20.00;;
6223;SDS011;3145;42.726;23.342;2023-01-16T13:10:38;36.13;;;20.63;;
6223;SDS011;3145;42.726;23.342;2023-01-16T13:13:28;30.20;;;17.97;;
6223;SDS011;3145;42.726;23.342;2023-01-16T13:16:01;20.50;;;13.47;;
6223;SDS011;3145;42.726;23.342;2023-01-16T13:18:32;33.60;;;19.70;;
6223;SDS011;3145;42.726;23.342;2023-01-16T13:21:05;36.57;;;20.63;;
6223;SDS011;3145;42.726;23.342;2023-01-16T13:23:38;23.03;;;13.17;;
6223;SDS011;3145;42.726;23.342;2023-01-16T13:26:10;30.17;;;18.20;;
6223;SDS011;3145;42.726;23.342;2023-01-16T13:28:43;32.77;;;19.37;;
6223;SDS011;3145;42.726;23.342;2023-01-16T13:31:18;21.27;;;12.27;;
6223;SDS011;3145;42.726;23.342;2023-01-16T13:33:54;35.30;;;19.57;;
6223;SDS011;3145;42.726;23.342;2023-01-16T13:39:35;32.63;;;20.70;;
6223;SDS011;3145;42.726;23.342;2023-01-16T13:42:19;28.70;;;16.87;;
6223;SDS011;3145;42.726;23.342;2023-01-16T13:44:52;35.10;;;22.03;;
6223;SDS011;3145;42.726;23.342;2023-01-16T13:47:41;28.07;;;15.83;;
6223;SDS011;3145;42.726;23.342;2023-01-16T13:50:15;33.50;;;18.70;;
6223;SDS011;3145;42.726;23.342;2023-01-16T13:52:45;28.80;;;15.37;;
6223;SDS011;3145;42.726;23.342;2023-01-16T13:55:19;32.63;;;19.17;;
6223;SDS011;3145;42.726;23.342;2023-01-16T13:57:54;30.80;;;20.77;;
6223;SDS011;3145;42.726;23.342;2023-01-16T14:00:24;32.27;;;18.57;;
6223;SDS011;3145;42.726;23.342;2023-01-16T14:03:01;37.03;;;23.83;;
6223;SDS011;3145;42.726;23.342;2023-01-16T14:05:43;29.50;;;17.30;;
6223;SDS011;3145;42.726;23.342;2023-01-16T14:08:17;35.17;;;21.47;;
6223;SDS011;3145;42.726;23.342;2023-01-16T14:11:15;41.03;;;25.17;;
6223;SDS011;3145;42.726;23.342;2023-01-16T14:13:55;52.03;;;27.80;;
6223;SDS011;3145;42.726;23.342;2023-01-16T14:17:08;41.23;;;21.53;;
6223;SDS011;3145;42.726;23.342;2023-01-16T14:19:35;28.90;;;18.83;;
6223;SDS011;3145;42.726;23.342;2023-01-16T14:22:05;50.43;;;25.57;;
6223;SDS011;3145;42.726;23.342;2023-01-16T14:24:51;36.97;;;21.77;;
6223;SDS011;3145;42.726;23.342;2023-01-16T14:27:20;34.47;;;22.07;;
6223;SDS011;3145;42.726;23.342;2023-01-16T14:29:50;68.17;;;31.33;;
6223;SDS011;3145;42.726;23.342;2023-01-16T14:32:23;41.43;;;22.13;;
6223;SDS011;3145;42.726;23.342;2023-01-16T14:34:52;43.77;;;15.17;;
6223;SDS011;3145;42.726;23.342;2023-01-16T14:37:23;44.30;;;22.73;;
6223;SDS011;3145;42.726;23.342;2023-01-16T14:39:53;53.90;;;30.60;;
6223;SDS011;3145;42.726;23.342;2023-01-16T14:42:24;39.20;;;24.83;;
6223;SDS011;3145;42.726;23.342;2023-01-16T14:45:17;46.40;;;24.60;;
6223;SDS011;3145;42.726;23.342;2023-01-16T14:48:14;38.03;;;19.47;;
6223;SDS011;3145;42.726;23.342;2023-01-16T14:51:14;49.33;;;26.30;;
6223;SDS011;3145;42.726;23.342;2023-01-16T14:54:02;60.67;;;30.00;;
6223;SDS011;3145;42.726;23.342;2023-01-16T14:56:50;68.83;;;31.63;;
6223;SDS011;3145;42.726;23.342;2023-01-16T14:59:24;47.47;;;20.27;;
6223;SDS011;3145;42.726;23.342;2023-01-16T15:01:57;41.40;;;22.17;;
6223;SDS011;3145;42.726;23.342;2023-01-16T15:04:47;49.20;;;28.77;;
6223;SDS011;3145;42.726;23.342;2023-01-16T15:07:22;40.07;;;24.50;;
6223;SDS011;3145;42.726;23.342;2023-01-16T15:09:54;35.77;;;22.23;;